Time;durP1;ratioP1;P1;durP2;ratioP2;P2;SDS_P1;SDS_P2;PMS_P1;PMS_P2;Temp;Humidity;BMP_temperature;BMP_pressure;BME280_temperature;BME280_humidity;BME280_pressure;Samples;Min_cycle;Max_cycle;Signal;HPM_P1;HPM_P2
2022/04/05 00:01:02;;;;;;;21.42;13.70;;;;;;;11.13;86.16;100321.31;3558683;40;20064;-64
2022/04/05 00:03:27;;;;;;;24.38;15.32;;;;;;;11.06;86.38;100306.63;3545354;40;20056;-64
2022/04/05 00:05:53;;;;;;;23.10;14.13;;;;;;;11.06;86.89;100322.75;3562132;40;20138;-63
2022/04/05 00:08:18;;;;;;;23.83;14.15;;;;;;;11.01;87.03;100320.41;3564394;40;20104;-64
2022/04/05 00:10:44;;;;;;;26.10;14.65;;;;;;;11.01;87.47;100320.41;3559124;40;20064;-63
2022/04/05 00:13:10;;;;;;;21.70;13.77;;;;;;;10.93;87.45;100312.88;3566029;40;20053;-64
2022/04/05 00:15:37;;;;;;;24.45;13.98;;;;;;;10.98;87.52;100319.78;3561149;40;20128;-62
2022/04/05 00:18:03;;;;;;;22.00;13.75;;;;;;;10.97;87.62;100328.78;3549917;40;20614;-65
2022/04/05 00:20:29;;;;;;;22.95;14.48;;;;;;;10.87;87.96;100312.44;3557789;40;20049;-62
2022/04/05 00:22:58;;;;;;;22.33;14.13;;;;;;;10.91;87.87;100320.22;3561797;40;20052;-63
2022/04/05 00:25:24;;;;;;;22.17;13.50;;;;;;;10.91;87.99;100325.59;3563732;40;20061;-62
2022/04/05 00:27:49;;;;;;;21.65;12.02;;;;;;;10.93;87.89;100312.00;3560127;40;20669;-62
2022/04/05 00:30:16;;;;;;;25.33;14.93;;;;;;;10.88;88.24;100323.13;3563810;40;20319;-62
2022/04/05 00:32:42;;;;;;;26.70;13.73;;;;;;;10.88;88.07;100320.44;3551791;40;20105;-63
2022/04/05 00:35:09;;;;;;;22.88;13.90;;;;;;;10.89;88.27;100327.50;3558056;40;20100;-63
2022/04/05 00:37:35;;;;;;;21.92;13.75;;;;;;;10.89;88.23;100326.66;3560097;40;20052;-62
2022/04/05 00:40:04;;;;;;;24.35;14.18;;;;;;;10.89;87.94;100321.28;3562703;40;20057;-62
2022/04/05 00:42:30;;;;;;;28.08;14.80;;;;;;;10.85;87.80;100314.41;3561126;40;20344;-62
2022/04/05 00:44:56;;;;;;;21.83;12.95;;;;;;;10.87;88.14;100318.69;3563465;40;20146;-63
2022/04/05 00:47:23;;;;;;;26.35;14.23;;;;;;;10.87;88.59;100323.22;3558672;40;20072;-62
2022/04/05 00:49:52;;;;;;;19.73;13.50;;;;;;;10.84;87.94;100321.59;3548236;40;20068;-62
2022/04/05 00:52:23;;;;;;;22.63;14.20;;;;;;;10.82;88.23;100315.47;3563324;40;20326;-61
2022/04/05 00:54:52;;;;;;;24.27;13.95;;;;;;;10.81;88.10;100329.88;3561258;40;20146;-62
2022/04/05 00:57:23;;;;;;;23.52;14.48;;;;;;;10.82;88.53;100323.53;3571007;40;20070;-61
2022/04/05 01:00:05;;;;;;;24.80;14.73;;;;;;;10.77;88.41;100320.31;3560222;40;20159;-61
2022/04/05 01:02:37;;;;;;;26.17;14.98;;;;;;;10.78;88.56;100324.72;3560649;40;20049;-61
2022/04/05 01:05:05;;;;;;;29.05;15.07;;;;;;;10.80;89.20;100328.16;3549844;40;20387;-61
2022/04/05 01:07:34;;;;;;;25.98;15.23;;;;;;;10.39;88.63;100263.88;3561636;40;20057;-62
2022/04/05 01:10:00;;;;;;;26.80;15.98;;;;;;;10.82;89.10;100322.69;3562631;40;20053;-62
2022/04/05 01:12:26;;;;;;;24.75;16.00;;;;;;;10.77;89.03;100319.47;3562066;40;20114;-61
2022/04/05 01:14:53;;;;;;;28.58;15.88;;;;;;;10.78;88.64;100322.03;3561256;40;20077;-62
2022/04/05 01:17:19;;;;;;;25.10;16.27;;;;;;;10.76;88.84;100321.28;3564356;40;20303;-62
2022/04/05 01:19:48;;;;;;;27.63;16.13;;;;;;;10.61;88.62;100303.56;3552941;40;20694;-62
2022/04/05 01:22:15;;;;;;;26.15;14.90;;;;;;;10.78;88.94;100319.34;3558558;40;20052;-63
2022/04/05 01:24:40;;;;;;;27.63;15.63;;;;;;;10.71;88.82;100328.81;3560849;40;20062;-63
2022/04/05 01:27:06;;;;;;;26.65;15.57;;;;;;;10.76;88.36;100331.19;3562908;40;20072;-63
2022/04/05 01:29:33;;;;;;;25.05;15.73;;;;;;;10.73;88.89;100326.03;3560356;40;20049;-62
2022/04/05 01:32:06;;;;;;;24.92;15.00;;;;;;;10.75;88.20;100333.03;3562970;40;20504;-62
2022/04/05 01:34:35;;;;;;;18.60;14.13;;;;;;;10.75;88.63;100333.03;3551349;40;20326;-62
2022/04/05 01:37:08;;;;;;;26.88;15.20;;;;;;;10.54;88.74;100297.75;3559744;40;20073;-62
2022/04/05 01:39:37;;;;;;;17.50;12.90;;;;;;;10.77;88.97;100327.53;3557631;40;20056;-62
2022/04/05 01:42:12;;;;;;;26.25;13.13;;;;;;;10.80;88.46;100341.59;3563393;40;20049;-62
2022/04/05 01:44:39;;;;;;;24.25;14.48;;;;;;;10.63;88.64;100315.06;3566497;40;20064;-62
2022/04/05 01:47:14;;;;;;;23.60;14.52;;;;;;;10.77;88.26;100327.53;3564197;40;20439;-62
2022/04/05 01:49:44;;;;;;;25.30;14.27;;;;;;;10.73;88.19;100329.56;3552777;40;20269;-62
2022/04/05 01:52:10;;;;;;;31.65;14.45;;;;;;;10.71;88.93;100328.81;3558493;40;20418;-62
2022/04/05 01:54:38;;;;;;;20.48;13.15;;;;;;;10.71;88.83;100338.72;3556992;40;20080;-61
2022/04/05 01:57:05;;;;;;;21.15;13.80;;;;;;;10.70;89.01;100340.53;3563027;40;20105;-61
2022/04/05 01:59:34;;;;;;;25.65;14.52;;;;;;;10.69;88.77;100330.75;3560880;40;20055;-61
2022/04/05 02:02:05;;;;;;;23.73;14.05;;;;;;;10.73;88.51;100336.78;3561587;40;20155;-62
2022/04/05 02:04:31;;;;;;;21.63;13.50;;;;;;;10.69;88.87;100336.13;3561017;40;20088;-62
2022/04/05 02:06:57;;;;;;;21.20;13.50;;;;;;;10.69;88.63;100336.13;3549198;40;20060;-62
2022/04/05 02:09:23;;;;;;;25.17;13.35;;;;;;;10.65;88.74;100334.63;3561805;40;20103;-62
2022/04/05 02:11:48;;;;;;;24.40;13.85;;;;;;;10.67;89.06;100335.38;3563792;40;20415;-62
2022/04/05 02:14:16;;;;;;;24.90;14.10;;;;;;;10.64;88.53;100333.75;3561999;40;20056;-63
2022/04/05 02:16:42;;;;;;;23.50;13.90;;;;;;;10.56;89.18;100329.88;3558953;40;20124;-62
2022/04/05 02:19:09;;;;;;;20.38;13.32;;;;;;;10.63;88.89;100340.13;3561632;40;20060;-63
2022/04/05 02:21:35;;;;;;;22.13;13.40;;;;;;;10.63;88.95;100336.56;3548574;40;20057;-62
2022/04/05 02:24:01;;;;;;;22.33;13.85;;;;;;;10.60;89.23;100326.03;3563180;40;20052;-62
2022/04/05 02:26:27;;;;;;;25.23;14.25;;;;;;;10.63;89.38;100340.13;3559356;40;20272;-62
2022/04/05 02:28:53;;;;;;;20.55;13.65;;;;;;;10.63;89.05;100347.31;3560533;40;20101;-63
2022/04/05 02:31:19;;;;;;;23.10;13.88;;;;;;;10.55;89.29;100329.03;3563190;40;20053;-62
2022/04/05 02:33:44;;;;;;;20.55;14.20;;;;;;;10.55;89.20;100328.16;3561902;40;20687;-63
2022/04/05 02:36:10;;;;;;;22.42;13.70;;;;;;;10.61;89.12;100339.34;3554179;40;20147;-62
2022/04/05 02:38:36;;;;;;;22.42;13.65;;;;;;;10.12;89.02;100255.91;3557276;40;20474;-62
2022/04/05 02:41:05;;;;;;;23.30;14.63;;;;;;;10.63;88.83;100341.94;3561972;40;20064;-62
2022/04/05 02:43:32;;;;;;;24.80;14.32;;;;;;;10.62;89.16;100340.19;3556690;40;20060;-62
2022/04/05 02:45:58;;;;;;;20.05;13.15;;;;;;;10.68;88.64;100345.16;3560855;40;20111;-62
2022/04/05 02:48:24;;;;;;;24.35;15.00;;;;;;;10.63;88.62;100339.25;3566407;40;20061;-62
2022/04/05 02:50:51;;;;;;;21.90;14.40;;;;;;;10.62;88.59;100335.69;3555236;40;20067;-62
2022/04/05 02:53:18;;;;;;;23.15;14.40;;;;;;;10.63;88.54;100336.56;3559134;40;20391;-62
2022/04/05 02:55:44;;;;;;;23.33;13.85;;;;;;;10.63;88.83;100341.94;3558606;40;20061;-62
2022/04/05 02:58:09;;;;;;;26.98;14.13;;;;;;;10.61;89.28;100338.50;3558405;40;20316;-62
2022/04/05 03:00:36;;;;;;;30.65;15.32;;;;;;;10.40;88.89;100309.47;3562512;40;20049;-61
2022/04/05 03:03:05;;;;;;;23.30;14.30;;;;;;;10.62;89.17;100334.81;3562095;40;20096;-62
2022/04/05 03:05:31;;;;;;;21.25;14.05;;;;;;;10.61;89.26;100338.50;3560149;40;20053;-62
2022/04/05 03:07:57;;;;;;;22.90;13.95;;;;;;;10.61;89.03;100338.50;3553582;40;20420;-62
2022/04/05 03:10:25;;;;;;;26.52;14.57;;;;;;;10.46;88.82;100313.53;3558438;40;20052;-62
2022/04/05 03:12:50;;;;;;;24.67;14.60;;;;;;;10.61;88.99;100327.75;3556655;40;20462;-62
2022/04/05 03:15:16;;;;;;;22.98;13.30;;;;;;;10.62;89.07;100340.19;3562196;40;20137;-61
2022/04/05 03:17:45;;;;;;;24.42;14.00;;;;;;;10.61;88.40;100342.03;3560118;40;20053;-61
2022/04/05 03:20:12;;;;;;;19.77;13.38;;;;;;;10.62;89.08;100334.81;3565902;40;20049;-61
2022/04/05 03:22:40;;;;;;;24.30;14.27;;;;;;;10.51;88.82;100324.84;3552738;40;20628;-61
2022/04/05 03:25:05;;;;;;;18.55;12.38;;;;;;;10.65;88.93;100340.00;3557507;40;20064;-61
2022/04/05 03:27:31;;;;;;;22.65;12.80;;;;;;;10.64;88.25;100333.75;3562347;40;20075;-61
2022/04/05 03:29:57;;;;;;;21.50;14.02;;;;;;;10.62;88.24;100337.50;3558239;40;20045;-61
2022/04/05 03:32:22;;;;;;;23.75;12.98;;;;;;;10.62;88.44;100334.81;3564110;40;20477;-61
2022/04/05 03:34:50;;;;;;;19.85;13.73;;;;;;;10.61;88.89;100341.19;3560532;40;20599;-61
2022/04/05 03:37:15;;;;;;;24.55;13.57;;;;;;;10.61;88.40;100339.34;3561066;40;20053;-61
2022/04/05 03:39:41;;;;;;;21.50;13.90;;;;;;;10.59;88.00;100341.31;3546313;40;20060;-61
2022/04/05 03:42:07;;;;;;;21.23;13.15;;;;;;;10.58;88.36;100342.25;3563435;40;20052;-61
2022/04/05 03:44:32;;;;;;;20.83;13.48;;;;;;;10.60;88.45;100328.72;3555959;40;20410;-61
2022/04/05 03:46:59;;;;;;;20.48;12.75;;;;;;;10.60;88.40;100331.41;3563322;40;20124;-61
2022/04/05 03:49:25;;;;;;;21.83;13.35;;;;;;;10.54;87.96;100321.94;3561554;40;20060;-61
2022/04/05 03:51:51;;;;;;;23.23;13.43;;;;;;;10.60;88.56;100334.94;3562977;40;20053;-61
2022/04/05 03:54:16;;;;;;;20.33;13.00;;;;;;;10.57;87.71;100331.63;3555568;40;20068;-61
2022/04/05 03:56:42;;;;;;;20.95;13.75;;;;;;;10.57;87.88;100334.31;3556858;40;20067;-61
2022/04/05 03:59:08;;;;;;;23.05;13.10;;;;;;;10.56;88.57;100327.19;3564920;40;20061;-61
2022/04/05 04:01:33;;;;;;;20.33;12.60;;;;;;;10.57;88.32;100327.09;3557627;40;20071;-61
2022/04/05 04:03:59;;;;;;;21.42;13.55;;;;;;;10.54;88.61;100324.63;3562871;40;20063;-61
2022/04/05 04:06:24;;;;;;;24.83;12.75;;;;;;;10.56;87.84;100329.88;3561935;40;20391;-61
2022/04/05 04:08:50;;;;;;;18.33;13.13;;;;;;;10.55;88.38;100331.72;3563986;40;20073;-62
2022/04/05 04:11:15;;;;;;;19.48;12.70;;;;;;;10.56;88.65;100333.44;3555314;40;20137;-62
2022/04/05 04:13:41;;;;;;;22.25;13.20;;;;;;;10.51;88.05;100316.78;3555919;40;20139;-61
2022/04/05 04:16:07;;;;;;;20.77;12.70;;;;;;;10.58;88.12;100327.94;3558102;40;20048;-62
2022/04/05 04:18:32;;;;;;;19.05;12.80;;;;;;;10.55;88.30;100329.03;3561502;40;20134;-61
2022/04/05 04:20:58;;;;;;;20.70;12.82;;;;;;;10.57;87.95;100329.78;3562300;40;20045;-62
2022/04/05 04:23:23;;;;;;;16.98;12.88;;;;;;;10.56;88.15;100325.38;3561998;40;20059;-61
2022/04/05 04:25:49;;;;;;;19.85;12.70;;;;;;;10.57;87.83;100331.63;3553892;40;20052;-61
2022/04/05 04:28:15;;;;;;;20.15;12.10;;;;;;;10.54;88.27;100329.16;3559716;40;20082;-61
2022/04/05 04:30:41;;;;;;;17.55;12.15;;;;;;;10.56;87.70;100330.75;3558504;40;20715;-62
2022/04/05 04:33:08;;;;;;;20.38;13.27;;;;;;;10.54;88.38;100326.47;3558864;40;20045;-61
2022/04/05 04:35:34;;;;;;;20.95;13.35;;;;;;;10.56;87.87;100332.56;3561312;40;20091;-61
2022/04/05 04:38:01;;;;;;;17.77;11.65;;;;;;;10.56;88.20;100332.56;3560716;40;20041;-61
2022/04/05 04:40:27;;;;;;;19.05;12.75;;;;;;;10.55;87.75;100331.72;3554361;40;20069;-61
2022/04/05 04:42:53;;;;;;;20.23;13.18;;;;;;;10.54;88.05;100321.09;3556888;40;20108;-61
2022/04/05 04:45:19;;;;;;;20.00;13.07;;;;;;;10.55;88.12;100338.91;3560357;40;20138;-61
2022/04/05 04:47:45;;;;;;;20.88;12.50;;;;;;;10.55;88.18;100328.16;3556726;40;20060;-62
2022/04/05 04:50:11;;;;;;;21.65;12.57;;;;;;;10.54;87.88;100335.38;3566883;40;20338;-62
2022/04/05 04:52:38;;;;;;;18.08;12.82;;;;;;;10.55;88.38;100334.41;3560937;40;20053;-61
2022/04/05 04:55:07;;;;;;;19.33;13.70;;;;;;;9.92;88.08;100228.56;3562568;40;20123;-61
2022/04/05 04:57:33;;;;;;;17.55;12.85;;;;;;;10.54;88.57;100331.84;3550054;40;20485;-60
2022/04/05 04:59:59;;;;;;;19.30;12.80;;;;;;;10.56;88.83;100340.63;3563767;40;20096;-61
2022/04/05 05:02:26;;;;;;;17.23;12.48;;;;;;;10.54;88.22;100335.38;3561965;40;20064;-61
2022/04/05 05:04:52;;;;;;;16.17;12.82;;;;;;;10.47;88.41;100320.66;3559699;40;20060;-62
2022/04/05 05:07:18;;;;;;;18.23;12.45;;;;;;;10.51;88.55;100342.78;3563010;40;20055;-61
2022/04/05 05:09:44;;;;;;;16.48;12.23;;;;;;;10.53;88.13;100343.53;3563939;40;20052;-62
2022/04/05 05:12:11;;;;;;;18.27;13.57;;;;;;;10.50;88.74;100338.38;3556953;40;20052;-62
2022/04/05 05:14:38;;;;;;;18.70;12.88;;;;;;;10.53;88.91;100340.84;3558966;40;20068;-61
2022/04/05 05:17:06;;;;;;;17.60;12.23;;;;;;;10.53;88.21;100340.84;3568163;40;20383;-61
2022/04/05 05:19:33;;;;;;;19.05;12.05;;;;;;;10.53;88.38;100343.53;3559409;40;20048;-61
2022/04/05 05:21:59;;;;;;;17.02;12.02;;;;;;;10.50;88.29;100341.94;3567468;40;20382;-62
2022/04/05 05:24:24;;;;;;;15.23;12.02;;;;;;;10.36;88.96;100315.16;3598673;22;20847;-61
2022/04/05 05:26:50;;;;;;;17.65;11.82;;;;;;;10.54;89.03;100353.34;3567942;40;20060;-62
2022/04/05 05:29:16;;;;;;;15.48;12.00;;;;;;;10.33;88.72;100304.63;3572392;40;20051;-62
2022/04/05 05:31:42;;;;;;;19.05;12.45;;;;;;;10.34;89.01;100311.69;3577198;40;20048;-62
2022/04/05 05:34:08;;;;;;;15.77;12.13;;;;;;;10.37;88.88;100325.81;3572016;40;20114;-63
2022/04/05 05:36:34;;;;;;;18.27;12.23;;;;;;;10.51;88.82;100353.53;3570592;40;20125;-61
2022/04/05 05:38:59;;;;;;;16.42;12.43;;;;;;;10.51;89.49;100350.84;3575981;40;20076;-62
2022/04/05 05:41:25;;;;;;;17.20;13.38;;;;;;;10.50;89.07;100351.81;3575431;40;20056;-62
2022/04/05 05:43:51;;;;;;;18.17;13.48;;;;;;;10.49;89.81;100350.94;3568512;40;20424;-63
2022/04/05 05:46:17;;;;;;;17.42;13.45;;;;;;;10.50;89.25;100357.19;3571386;40;20056;-62
2022/04/05 05:48:42;;;;;;;19.13;13.75;;;;;;;10.51;89.25;100366.97;3575575;40;20143;-63
2022/04/05 05:51:08;;;;;;;21.23;14.60;;;;;;;10.41;89.62;100348.81;3571374;40;20402;-63
2022/04/05 05:53:35;;;;;;;19.73;13.90;;;;;;;10.54;89.41;100369.47;3569552;40;20300;-62
2022/04/05 05:56:01;;;;;;;20.92;14.30;;;;;;;10.50;88.67;100365.25;3571730;40;20133;-63
2022/04/05 05:58:27;;;;;;;22.92;15.00;;;;;;;10.42;89.39;100360.41;3570185;40;20383;-62
2022/04/05 06:00:53;;;;;;;20.02;13.98;;;;;;;10.56;88.67;100367.50;3567797;40;20107;-62
2022/04/05 06:03:19;;;;;;;18.75;14.70;;;;;;;10.56;88.94;100370.19;3575305;40;20130;-62
2022/04/05 06:05:46;;;;;;;21.25;14.30;;;;;;;10.53;89.17;100375.78;3568188;40;20072;-60
2022/04/05 06:08:13;;;;;;;19.85;13.73;;;;;;;10.52;88.83;100366.00;3577241;40;20040;-62
2022/04/05 06:10:39;;;;;;;20.70;14.55;;;;;;;10.44;88.73;100359.34;3575291;40;20667;-61
2022/04/05 06:13:05;;;;;;;21.02;14.18;;;;;;;10.53;88.64;100378.47;3576956;40;20063;-62
2022/04/05 06:15:32;;;;;;;23.45;14.63;;;;;;;10.47;88.82;100365.47;3564443;40;20067;-60
2022/04/05 06:17:58;;;;;;;23.13;14.93;;;;;;;10.51;88.85;100372.34;3571769;40;20049;-61
2022/04/05 06:20:25;;;;;;;20.77;14.25;;;;;;;10.54;88.61;100382.91;3577673;40;20140;-60
2022/04/05 06:22:54;;;;;;;20.48;14.00;;;;;;;10.49;88.87;100369.75;3569603;40;20092;-61
2022/04/05 06:25:27;;;;;;;21.35;15.10;;;;;;;10.54;88.74;100380.22;3572275;40;20060;-60
2022/04/05 06:27:53;;;;;;;20.00;12.77;;;;;;;10.56;88.35;100387.22;3574436;40;20060;-60
2022/04/05 06:30:19;;;;;;;24.08;14.43;;;;;;;10.49;88.15;100368.91;3569244;40;20089;-61
2022/04/05 06:32:46;;;;;;;21.85;13.30;;;;;;;10.49;88.10;100376.97;3564776;40;20064;-62
2022/04/05 06:35:13;;;;;;;17.35;12.40;;;;;;;10.55;88.06;100381.91;3577704;40;20107;-62
2022/04/05 06:37:43;;;;;;;17.02;12.00;;;;;;;10.63;87.31;100393.00;3569114;40;20064;-60
2022/04/05 06:40:11;;;;;;;19.52;11.27;;;;;;;10.67;87.45;100397.19;3578954;40;20053;-60
2022/04/05 06:42:42;;;;;;;16.02;12.27;;;;;;;10.65;87.87;100388.38;3571855;40;20787;-61
2022/04/05 06:45:12;;;;;;;16.67;10.15;;;;;;;10.71;87.26;100393.31;3576697;40;20050;-61
2022/04/05 06:47:37;;;;;;;16.08;10.48;;;;;;;10.71;87.29;100393.31;3561760;40;21606;-61
2022/04/05 06:50:07;;;;;;;18.23;10.60;;;;;;;10.75;86.63;100400.22;3582054;39;20411;-61
2022/04/05 06:52:38;;;;;;;16.67;10.82;;;;;;;10.76;86.97;100401.94;3573451;40;20108;-60
2022/04/05 06:55:06;;;;;;;14.80;10.65;;;;;;;10.77;87.12;100403.66;3578704;40;20057;-61
2022/04/05 06:57:32;;;;;;;18.02;11.45;;;;;;;10.80;87.17;100405.28;3576104;40;20068;-62
2022/04/05 06:59:57;;;;;;;21.23;11.20;;;;;;;10.74;86.70;100403.88;3579961;40;20092;-61
2022/04/05 07:02:23;;;;;;;19.05;10.75;;;;;;;10.74;86.59;100403.88;3566840;40;20496;-61
2022/04/05 07:04:49;;;;;;;13.68;9.38;;;;;;;10.80;86.55;100406.13;3571862;40;20064;-62
2022/04/05 07:07:15;;;;;;;15.90;9.25;;;;;;;10.67;86.14;100389.13;3578429;40;20041;-61
2022/04/05 07:09:40;;;;;;;13.95;9.48;;;;;;;10.80;86.26;100411.50;3568871;40;20618;-61
2022/04/05 07:12:09;;;;;;;17.48;9.35;;;;;;;10.82;85.80;100406.91;3576256;40;20072;-62
2022/04/05 07:14:36;;;;;;;15.20;9.48;;;;;;;10.76;86.30;100401.09;3571466;40;21283;-62
2022/04/05 07:17:02;;;;;;;16.95;9.55;;;;;;;10.84;85.72;100404.09;3568957;40;20108;-62
2022/04/05 07:19:28;;;;;;;13.43;9.07;;;;;;;10.88;86.13;100422.59;3570055;40;20056;-61
2022/04/05 07:21:53;;;;;;;15.07;9.30;;;;;;;10.87;85.96;100414.63;3577379;40;20055;-63
2022/04/05 07:24:19;;;;;;;13.18;8.70;;;;;;;10.80;86.12;100402.59;3573229;40;20327;-62
2022/04/05 07:26:45;;;;;;;11.45;8.10;;;;;;;10.86;85.97;100419.16;3572228;40;20102;-62
2022/04/05 07:29:11;;;;;;;15.85;8.75;;;;;;;10.87;85.96;100414.63;3576442;40;20102;-61
2022/04/05 07:31:38;;;;;;;11.73;8.60;;;;;;;10.85;85.41;100395.94;3567982;40;20056;-62
2022/04/05 07:34:05;;;;;;;11.82;8.88;;;;;;;10.91;85.80;100406.25;3577259;40;20098;-62
2022/04/05 07:36:31;;;;;;;12.52;8.30;;;;;;;10.90;85.23;100412.59;3567890;40;20100;-62
2022/04/05 07:38:57;;;;;;;13.10;7.88;;;;;;;10.92;85.28;100407.13;3578866;40;20052;-63
2022/04/05 07:41:24;;;;;;;14.02;8.63;;;;;;;10.94;85.49;100410.53;3571537;40;20166;-61
2022/04/05 07:43:49;;;;;;;14.07;7.55;;;;;;;10.93;85.40;100409.69;3570147;40;20631;-63
2022/04/05 07:46:15;;;;;;;11.23;8.02;;;;;;;10.95;85.24;100406.91;3576437;40;20334;-62
2022/04/05 07:48:41;;;;;;;15.05;7.68;;;;;;;10.97;84.96;100398.72;3563829;40;20060;-63
2022/04/05 07:51:07;;;;;;;12.00;7.22;;;;;;;10.86;84.78;100386.88;3577369;40;20481;-62
2022/04/05 07:53:33;;;;;;;11.90;7.82;;;;;;;11.00;84.62;100403.88;3567976;40;20076;-62
2022/04/05 07:55:59;;;;;;;11.52;7.90;;;;;;;11.05;84.54;100412.50;3576134;40;20067;-62
2022/04/05 07:58:25;;;;;;;14.52;7.20;;;;;;;11.04;84.55;100406.25;3575241;40;20126;-61
2022/04/05 08:00:52;;;;;;;13.27;7.20;;;;;;;11.06;84.81;100403.44;3569996;40;20713;-64
2022/04/05 08:03:18;;;;;;;14.18;7.35;;;;;;;11.01;84.48;100395.72;3567085;40;20406;-63
2022/04/05 08:05:44;;;;;;;13.85;6.72;;;;;;;11.08;83.93;100404.22;3572652;40;20068;-62
2022/04/05 08:08:10;;;;;;;11.77;7.18;;;;;;;11.10;84.38;100402.25;3571034;40;20276;-62
2022/04/05 08:10:36;;;;;;;10.88;6.82;;;;;;;11.17;83.97;100413.47;3572727;40;20070;-62
2022/04/05 08:13:02;;;;;;;11.55;7.22;;;;;;;11.12;83.36;100403.00;3576773;40;20048;-62
2022/04/05 08:15:28;;;;;;;10.85;7.05;;;;;;;11.20;83.81;100413.25;3571049;40;20056;-62
2022/04/05 08:17:54;;;;;;;14.40;7.10;;;;;;;11.19;83.68;100401.59;3569579;40;20055;-63
2022/04/05 08:20:20;;;;;;;13.23;6.40;;;;;;;11.21;83.07;100402.34;3565598;40;20295;-61
2022/04/05 08:22:47;;;;;;;11.10;6.88;;;;;;;11.29;82.89;100416.13;3575211;39;20138;-61
2022/04/05 08:25:17;;;;;;;10.57;6.75;;;;;;;11.20;83.01;100397.09;3578857;40;20096;-62
2022/04/05 08:27:46;;;;;;;10.88;6.75;;;;;;;11.34;83.36;100419.34;3572703;40;20674;-62
2022/04/05 08:30:15;;;;;;;8.38;5.75;;;;;;;11.37;82.72;100419.13;3577572;40;20052;-62
2022/04/05 08:32:44;;;;;;;12.15;6.00;;;;;;;11.28;82.40;100408.16;3567339;40;20640;-62
2022/04/05 08:35:13;;;;;;;9.00;6.00;;;;;;;11.44;82.71;100427.63;3567386;40;20048;-62
2022/04/05 08:37:41;;;;;;;9.98;6.20;;;;;;;11.35;82.78;100404.94;3570980;40;20411;-62
2022/04/05 08:40:09;;;;;;;8.77;5.22;;;;;;;11.51;82.39;100430.72;3569239;40;20128;-62
2022/04/05 08:42:39;;;;;;;8.27;6.13;;;;;;;11.54;82.19;100425.97;3570905;40;20086;-63
2022/04/05 08:45:10;;;;;;;9.75;6.40;;;;;;;11.58;82.17;100432.03;3568375;40;20061;-63
2022/04/05 08:47:43;;;;;;;9.65;6.32;;;;;;;11.62;82.21;100436.19;3570919;40;20060;-62
2022/04/05 08:50:09;;;;;;;10.13;5.75;;;;;;;11.65;82.05;100422.53;3575779;40;20049;-63
2022/04/05 08:52:35;;;;;;;9.88;6.20;;;;;;;11.65;82.14;100432.44;3566602;40;20060;-63
2022/04/05 08:55:01;;;;;;;10.73;7.45;;;;;;;11.69;81.90;100434.78;3575021;40;20060;-64
2022/04/05 08:57:27;;;;;;;10.93;7.80;;;;;;;11.71;81.88;100435.53;3576653;40;20092;-63
2022/04/05 08:59:53;;;;;;;11.73;7.82;;;;;;;11.47;82.11;100394.25;3579159;40;20063;-63
2022/04/05 09:02:27;;;;;;;11.00;8.07;;;;;;;11.72;82.06;100437.25;3577173;40;20056;-63
2022/04/05 09:04:53;;;;;;;10.90;7.47;;;;;;;11.76;82.43;100446.81;3571338;40;20064;-63
2022/04/05 09:07:28;;;;;;;10.07;8.10;;;;;;;11.75;82.61;100442.41;3568654;40;20052;-63
2022/04/05 09:10:15;;;;;;;11.93;7.13;;;;;;;11.79;82.45;100451.97;3572143;40;20062;-62
2022/04/05 09:12:47;;;;;;;8.05;6.82;;;;;;;11.79;82.29;100446.59;3578390;40;20133;-63
2022/04/05 09:15:18;;;;;;;10.18;6.97;;;;;;;11.83;82.65;100445.41;3578570;40;20096;-62
2022/04/05 09:17:47;;;;;;;10.82;6.50;;;;;;;11.87;82.58;100438.00;3578181;40;20333;-63
2022/04/05 09:20:16;;;;;;;8.13;6.40;;;;;;;11.89;83.18;100440.56;3572293;40;20056;-62
2022/04/05 09:22:42;;;;;;;9.45;6.28;;;;;;;11.92;82.95;100445.72;3568130;40;20730;-63
2022/04/05 09:25:14;;;;;;;9.35;7.47;;;;;;;11.92;82.64;100434.97;3574852;40;20059;-65
2022/04/05 09:27:59;;;;;;;10.30;6.95;;;;;;;11.84;82.34;100427.44;3578734;40;20056;-64
2022/04/05 09:30:29;;;;;;;9.90;6.70;;;;;;;11.96;82.36;100460.72;3580504;40;20049;-63
2022/04/05 09:33:02;;;;;;;9.25;7.00;;;;;;;11.92;82.85;100451.13;3575768;40;20052;-63
2022/04/05 09:35:41;;;;;;;8.73;6.88;;;;;;;11.93;82.41;100461.78;3571923;40;20113;-62
2022/04/05 09:38:17;;;;;;;9.98;7.80;;;;;;;11.85;83.50;100453.41;3578296;40;20076;-62
2022/04/05 09:40:44;;;;;;;9.40;7.25;;;;;;;11.88;84.23;100455.03;3564366;40;20055;-62
2022/04/05 09:43:15;;;;;;;11.95;8.40;;;;;;;11.89;84.44;100459.41;3576440;40;20054;-62
2022/04/05 09:46:02;;;;;;;9.90;7.40;;;;;;;11.90;84.21;100466.56;3574507;40;20134;-60
2022/04/05 09:48:35;;;;;;;11.50;7.68;;;;;;;11.89;84.14;100462.13;3574230;40;20041;-61
2022/04/05 09:51:04;;;;;;;;;;;;;;;11.90;84.34;100461.16;3574788;40;20053;-62
2022/04/05 09:53:50;;;;;;;13.52;8.23;;;;;;;11.83;84.56;100453.50;3573433;40;19932;-61
2022/04/05 09:56:39;;;;;;;12.23;8.00;;;;;;;11.69;84.58;100421.31;3562409;40;20052;-62
2022/04/05 09:59:18;;;;;;;12.65;8.65;;;;;;;11.92;84.53;100460.06;3575442;40;20052;-61
2022/04/05 10:01:46;;;;;;;10.90;7.75;;;;;;;11.81;84.68;100438.41;3568136;40;20061;-62
2022/04/05 10:04:17;;;;;;;8.30;7.43;;;;;;;11.91;84.37;100454.78;3575901;40;20055;-61
2022/04/05 10:06:47;;;;;;;12.20;7.70;;;;;;;12.00;84.96;100464.91;3567968;40;20141;-62
2022/04/05 10:09:16;;;;;;;12.05;7.72;;;;;;;11.71;84.77;100416.69;3572461;40;20086;-61
2022/04/05 10:11:44;;;;;;;10.43;7.82;;;;;;;12.01;84.59;100466.59;3562640;40;20064;-63
2022/04/05 10:14:13;;;;;;;11.43;7.95;;;;;;;12.03;84.82;100464.66;3569157;40;20060;-62
2022/04/05 10:16:39;;;;;;;11.90;7.43;;;;;;;12.05;84.69;100458.19;3566596;40;20052;-61
2022/04/05 10:19:10;;;;;;;8.48;6.80;;;;;;;12.06;84.21;100456.38;3567932;40;20123;-62
2022/04/05 10:21:39;;;;;;;10.60;6.65;;;;;;;12.20;84.09;100461.56;3568122;39;20386;-61
2022/04/05 10:24:07;;;;;;;8.75;6.30;;;;;;;12.24;83.50;100457.69;3567856;40;20048;-63
2022/04/05 10:26:37;;;;;;;9.38;5.80;;;;;;;12.35;82.53;100458.72;3561650;40;20036;-62
2022/04/05 10:29:15;;;;;;;8.10;5.90;;;;;;;12.50;82.84;100460.25;3573171;40;20052;-62
2022/04/05 10:32:33;;;;;;;9.77;5.97;;;;;;;12.58;81.77;100465.91;3573253;40;20069;-62
2022/04/05 10:35:10;;;;;;;8.63;5.05;;;;;;;12.60;80.11;100457.72;3567697;40;20178;-60
2022/04/05 10:37:39;;;;;;;8.85;5.90;;;;;;;12.54;80.38;100448.25;3569639;40;20056;-61
2022/04/05 10:40:10;;;;;;;8.02;5.30;;;;;;;12.61;81.27;100454.03;3571364;40;20056;-61
2022/04/05 10:42:39;;;;;;;7.75;5.10;;;;;;;12.71;81.27;100450.50;3560650;40;20044;-64
2022/04/05 10:45:23;;;;;;;5.90;4.72;;;;;;;12.77;80.89;100458.13;3575401;40;20071;-62
2022/04/05 10:48:14;;;;;;;7.35;5.28;;;;;;;12.85;80.54;100451.31;3565986;40;20408;-61
2022/04/05 10:51:09;;;;;;;8.35;5.20;;;;;;;12.89;80.20;100458.19;3574755;40;20050;-63
2022/04/05 10:53:38;;;;;;;10.23;5.72;;;;;;;12.88;80.71;100461.88;3571788;40;20064;-62
2022/04/05 10:56:04;;;;;;;7.53;4.70;;;;;;;12.87;79.43;100452.03;3566370;40;20470;-63
2022/04/05 10:58:32;;;;;;;7.30;4.50;;;;;;;12.52;79.95;100394.44;3572856;39;20067;-62
2022/04/05 11:01:25;;;;;;;5.40;4.45;;;;;;;12.90;79.80;100459.88;3578077;40;20065;-62
2022/04/05 11:04:21;;;;;;;5.28;4.25;;;;;;;12.93;79.45;100448.84;3559394;40;20133;-62
2022/04/05 11:07:09;;;;;;;5.63;3.95;;;;;;;13.00;78.66;100455.50;3579806;40;20040;-62
2022/04/05 11:09:47;;;;;;;5.55;3.88;;;;;;;13.01;78.49;100462.63;3575563;40;20059;-61
2022/04/05 11:12:23;;;;;;;6.25;4.15;;;;;;;12.98;78.13;100441.28;3571185;40;20067;-62
2022/04/05 11:15:05;;;;;;;7.82;4.25;;;;;;;13.13;77.78;100452.69;3571513;40;20116;-62
2022/04/05 11:17:33;;;;;;;5.05;4.32;;;;;;;13.11;78.56;100446.56;3572137;40;20122;-62
2022/04/05 11:20:01;;;;;;;6.60;4.40;;;;;;;13.24;77.97;100456.31;3565231;40;20159;-63